Time;durP1;ratioP1;P1;durP2;ratioP2;P2;SDS_P1;SDS_P2;PMS_P1;PMS_P2;Temp;Humidity;BMP_temperature;BMP_pressure;BME280_temperature;BME280_humidity;BME280_pressure;Samples;Min_cycle;Max_cycle;Signal;HPM_P1;HPM_P2
2021/01/02 00:00:21;;;;;;;42.73;35.27;;;;;;;6.35;68.27;100888.81;6186701;28;20226;-68
2021/01/02 00:04:15;;;;;;;48.30;36.20;;;;;;;6.05;68.96;100890.25;6187880;28;20237;-67
2021/01/02 00:08:06;;;;;;;42.97;33.63;;;;;;;6.10;69.22;100883.38;6178325;28;20247;-68
2021/01/02 00:11:42;;;;;;;39.90;32.33;;;;;;;6.31;68.43;100889.63;6180065;28;20221;-67
2021/01/02 00:15:05;;;;;;;39.40;32.60;;;;;;;5.97;69.01;100891.91;6182759;28;20238;-68
2021/01/02 00:18:36;;;;;;;41.77;32.93;;;;;;;6.16;68.44;100898.09;6186637;28;20230;-68
2021/01/02 00:22:02;;;;;;;43.07;34.53;;;;;;;6.09;68.92;100897.19;6185647;28;20226;-68
2021/01/02 00:25:25;;;;;;;40.03;31.73;;;;;;;6.33;67.78;100906.03;6209127;28;20642;-68
2021/01/02 00:28:49;;;;;;;43.57;32.50;;;;;;;6.28;67.70;100902.53;6187225;28;20781;-68
2021/01/02 00:32:22;;;;;;;43.33;32.97;;;;;;;6.01;68.52;100904.00;6181171;28;20242;-68
2021/01/02 00:35:46;;;;;;;42.03;32.80;;;;;;;5.82;68.85;100899.44;6183043;28;20237;-68
2021/01/02 00:39:14;;;;;;;40.40;31.40;;;;;;;6.05;68.72;100905.75;6180157;28;20233;-69
2021/01/02 00:42:36;;;;;;;43.73;32.13;;;;;;;6.00;68.52;100912.59;6180114;28;20225;-68
2021/01/02 00:45:59;;;;;;;36.97;31.40;;;;;;;6.18;68.07;100895.53;6183230;28;20238;-69
2021/01/02 00:49:20;;;;;;;39.87;31.70;;;;;;;6.01;68.70;100903.09;6202216;28;20218;-69
2021/01/02 00:53:09;;;;;;;39.90;31.07;;;;;;;6.11;68.26;100899.78;6171594;28;20478;-69
2021/01/02 00:56:34;;;;;;;34.57;29.50;;;;;;;6.27;67.48;100908.56;6179075;28;20226;-68
2021/01/02 01:00:07;;;;;;;41.67;30.77;;;;;;;6.01;67.95;100906.59;6171216;28;20241;-69
2021/01/02 01:03:56;;;;;;;37.77;29.27;;;;;;;6.21;67.59;100905.94;6186888;28;20237;-69
2021/01/02 01:07:19;;;;;;;39.13;30.17;;;;;;;6.15;67.30;100909.31;6179292;28;23304;-69
2021/01/02 01:10:40;;;;;;;34.60;28.77;;;;;;;6.00;67.55;100917.75;6176481;28;20242;-67
2021/01/02 01:14:03;;;;;;;37.93;29.87;;;;;;;5.97;67.55;100922.03;6190999;28;20524;-68
2021/01/02 01:17:24;;;;;;;35.20;29.63;;;;;;;6.34;66.67;100918.13;6184345;28;20234;-68
2021/01/02 01:20:48;;;;;;;38.20;27.80;;;;;;;6.06;67.62;100925.59;6187218;28;20933;-68
2021/01/02 01:24:12;;;;;;;34.00;28.70;;;;;;;5.92;68.07;100929.69;6190747;28;20257;-68
2021/01/02 01:27:53;;;;;;;35.30;28.73;;;;;;;6.05;67.50;100931.63;6194635;28;20225;-68
2021/01/02 01:31:17;;;;;;;36.07;28.87;;;;;;;6.33;66.76;100925.88;6191778;28;20238;-67
2021/01/02 01:34:38;;;;;;;35.70;28.93;;;;;;;5.90;67.83;100939.16;6198410;28;20241;-68
2021/01/02 01:37:59;;;;;;;37.20;27.90;;;;;;;6.02;67.56;100948.81;6191479;28;20328;-68
2021/01/02 01:41:32;;;;;;;37.23;29.43;;;;;;;6.03;67.61;100948.84;6187091;28;20258;-68
2021/01/02 01:44:56;;;;;;;35.63;28.27;;;;;;;5.88;67.95;100948.63;6195426;28;20253;-68
2021/01/02 01:48:25;;;;;;;37.03;27.03;;;;;;;5.68;68.41;100950.91;6178522;28;20372;-68
2021/01/02 01:51:57;;;;;;;38.37;27.23;;;;;;;6.03;67.69;100950.53;6191690;28;20237;-68
2021/01/02 01:55:26;;;;;;;34.27;27.83;;;;;;;6.05;67.32;100951.44;6191140;28;20249;-68
2021/01/02 01:59:18;;;;;;;39.30;30.07;;;;;;;5.82;68.34;100949.41;6186962;28;20229;-69
2021/01/02 02:03:00;;;;;;;36.53;28.53;;;;;;;5.91;67.81;100952.09;6182021;28;20241;-68
2021/01/02 02:06:27;;;;;;;37.33;27.23;;;;;;;5.92;68.00;100948.66;6182698;28;20233;-69
2021/01/02 02:09:59;;;;;;;31.03;25.30;;;;;;;6.39;66.21;100952.66;6188144;28;21930;-69
2021/01/02 02:13:29;;;;;;;32.87;25.57;;;;;;;6.51;66.00;100946.72;6173479;28;20928;-69
2021/01/02 02:16:52;;;;;;;30.63;26.13;;;;;;;6.19;66.75;100949.88;6191965;28;20260;-68
2021/01/02 02:20:17;;;;;;;35.97;25.00;;;;;;;6.04;67.31;100955.72;6184627;28;20226;-67
2021/01/02 02:23:42;;;;;;;33.13;25.90;;;;;;;6.44;65.86;100966.50;6193086;28;20320;-67
2021/01/02 02:27:02;;;;;;;31.70;25.50;;;;;;;6.24;66.59;100957.66;6184899;28;20230;-68
2021/01/02 02:30:30;;;;;;;29.90;23.90;;;;;;;6.35;66.46;100960.38;6193245;28;20230;-68
2021/01/02 02:33:55;;;;;;;37.27;25.70;;;;;;;6.04;67.14;100955.72;6178431;28;20237;-68
2021/01/02 02:37:15;;;;;;;34.33;27.33;;;;;;;6.33;66.49;100955.19;6185990;28;20268;-67
2021/01/02 02:40:36;;;;;;;29.97;23.97;;;;;;;6.08;67.23;100957.50;6189232;28;20234;-67
2021/01/02 02:44:00;;;;;;;33.70;27.13;;;;;;;6.05;67.56;100954.03;6201206;28;20233;-67
2021/01/02 02:47:24;;;;;;;32.90;25.90;;;;;;;6.11;67.17;100952.38;6187803;28;20233;-68
2021/01/02 02:50:49;;;;;;;30.47;24.93;;;;;;;6.10;66.98;100955.78;6189116;28;20229;-68
2021/01/02 02:54:10;;;;;;;31.17;24.23;;;;;;;6.15;66.94;100953.28;6183801;28;20496;-68
2021/01/02 02:57:33;;;;;;;33.70;25.47;;;;;;;6.33;66.28;100944.84;6190011;28;20233;-69
2021/01/02 03:00:53;;;;;;;32.80;27.27;;;;;;;6.11;67.01;100952.38;6190515;28;20591;-68
2021/01/02 03:04:15;;;;;;;29.97;26.27;;;;;;;5.99;67.30;100954.81;6185297;28;20627;-69
2021/01/02 03:07:41;;;;;;;33.73;26.10;;;;;;;6.22;66.88;100956.78;6199090;28;20515;-68
2021/01/02 03:11:02;;;;;;;30.73;24.93;;;;;;;6.07;66.87;100957.50;6165733;28;20233;-68
2021/01/02 03:14:23;;;;;;;30.67;27.30;;;;;;;5.85;67.72;100961.47;6185020;28;21792;-69
2021/01/02 03:17:44;;;;;;;31.17;25.23;;;;;;;5.80;67.95;100965.75;6190478;28;20237;-69
2021/01/02 03:21:06;;;;;;;31.27;25.47;;;;;;;6.13;67.11;100967.00;6205792;28;20229;-68
2021/01/02 03:24:27;;;;;;;34.53;26.97;;;;;;;6.01;67.48;100971.22;6204067;28;20221;-68
2021/01/02 03:27:52;;;;;;;36.33;28.70;;;;;;;5.57;69.27;100983.53;6179301;28;20230;-67
2021/01/02 03:31:12;;;;;;;34.80;27.80;;;;;;;5.61;68.88;100978.41;6183703;28;20237;-67
2021/01/02 03:34:36;;;;;;;31.30;27.03;;;;;;;5.76;69.30;100977.75;6192223;28;20323;-67
2021/01/02 03:37:58;;;;;;;31.47;26.03;;;;;;;5.65;69.52;100985.34;6186188;28;20253;-68
2021/01/02 03:41:19;;;;;;;37.17;27.90;;;;;;;5.69;69.03;100987.13;6182716;28;20234;-67
2021/01/02 03:44:39;;;;;;;34.53;28.70;;;;;;;5.49;69.55;100992.03;6185616;28;20608;-69
2021/01/02 03:48:00;;;;;;;34.37;29.43;;;;;;;6.06;68.01;100990.22;6195065;28;20230;-68
2021/01/02 03:51:25;;;;;;;34.67;28.60;;;;;;;5.76;69.54;100985.50;6193731;28;20523;-68
2021/01/02 03:54:46;;;;;;;32.40;28.23;;;;;;;5.64;69.69;100996.56;6191948;28;20555;-67
2021/01/02 03:58:08;;;;;;;35.90;29.70;;;;;;;5.84;68.93;100993.38;6189974;28;20509;-68
2021/01/02 04:01:28;;;;;;;37.03;29.30;;;;;;;5.76;69.36;100985.50;6196439;28;20237;-68
2021/01/02 04:04:48;;;;;;;32.77;26.67;;;;;;;5.65;69.56;100995.69;6201478;28;20233;-68
2021/01/02 04:08:09;;;;;;;33.50;27.90;;;;;;;5.53;70.16;100998.97;6193280;28;20241;-68
2021/01/02 04:11:30;;;;;;;36.77;29.03;;;;;;;5.53;70.00;100998.97;6200010;28;20246;-68
2021/01/02 04:14:51;;;;;;;35.23;27.13;;;;;;;5.82;69.07;100995.06;6198713;28;20507;-68
2021/01/02 04:18:12;;;;;;;38.07;27.63;;;;;;;5.81;69.30;100998.47;6186941;28;20317;-69
2021/01/02 04:21:33;;;;;;;31.90;27.47;;;;;;;5.36;71.05;100997.00;6190003;28;20230;-70
2021/01/02 04:24:53;;;;;;;31.33;26.43;;;;;;;5.85;69.32;100997.66;6195579;28;20226;-68
2021/01/02 04:28:14;;;;;;;31.93;27.10;;;;;;;5.37;71.30;101002.19;6221715;28;20600;-69
2021/01/02 04:31:37;;;;;;;34.73;28.20;;;;;;;5.74;69.94;100997.53;6221298;28;20319;-68
2021/01/02 04:34:58;;;;;;;38.17;29.57;;;;;;;5.60;70.59;100999.91;6220277;28;20277;-69
2021/01/02 04:38:18;;;;;;;32.30;25.80;;;;;;;5.79;70.04;100995.88;6195565;28;20229;-68
2021/01/02 04:41:41;;;;;;;32.13;24.80;;;;;;;5.92;69.06;101002.94;6188837;28;20241;-70
2021/01/02 04:45:03;;;;;;;28.07;25.20;;;;;;;6.05;69.12;100998.84;6190948;28;20238;-68
2021/01/02 04:48:24;;;;;;;31.20;25.93;;;;;;;6.25;68.30;100993.03;6196428;28;20241;-69
2021/01/02 04:51:44;;;;;;;29.53;25.43;;;;;;;5.97;68.88;101002.16;6209080;28;20233;-69
2021/01/02 04:55:07;;;;;;;31.97;25.67;;;;;;;5.99;69.22;100997.88;6221802;28;20236;-69
2021/01/02 04:58:29;;;;;;;27.57;23.43;;;;;;;6.27;68.26;100999.09;6215918;28;20256;-69
2021/01/02 05:01:52;;;;;;;31.13;26.10;;;;;;;6.15;68.20;101004.13;6210205;28;20222;-69
2021/01/02 05:05:13;;;;;;;28.70;24.13;;;;;;;6.04;69.00;101002.25;6209842;28;20233;-69
2021/01/02 05:08:34;;;;;;;30.80;26.30;;;;;;;6.36;68.15;101009.56;6215686;28;20233;-68
2021/01/02 05:11:55;;;;;;;31.10;24.67;;;;;;;6.14;68.65;101008.41;6216067;28;20855;-69
2021/01/02 05:15:16;;;;;;;34.20;27.63;;;;;;;6.20;68.11;101007.63;6207247;28;20324;-69
2021/01/02 05:18:51;;;;;;;35.93;28.07;;;;;;;5.89;69.43;101012.38;6216709;28;20225;-69
2021/01/02 05:22:24;;;;;;;33.10;26.40;;;;;;;5.85;69.56;101026.97;6215054;28;20229;-69
2021/01/02 05:25:44;;;;;;;34.80;27.20;;;;;;;5.70;70.42;101022.47;6214572;28;20225;-69
2021/01/02 05:29:12;;;;;;;29.30;25.67;;;;;;;6.19;68.82;101021.41;6208238;28;20319;-68
2021/01/02 05:32:33;;;;;;;31.53;24.53;;;;;;;6.13;69.01;101021.31;6214491;28;20665;-68
2021/01/02 05:35:54;;;;;;;34.07;26.13;;;;;;;6.02;69.24;101024.66;6213364;28;20578;-68
2021/01/02 05:39:17;;;;;;;35.63;27.40;;;;;;;6.01;70.15;101027.19;6213567;28;20233;-69
2021/01/02 05:42:40;;;;;;;38.43;29.50;;;;;;;5.91;70.26;101031.34;6213212;28;20241;-67
2021/01/02 05:46:05;;;;;;;30.60;25.70;;;;;;;6.16;69.78;101029.97;6205534;28;20616;-68
2021/01/02 05:49:35;;;;;;;32.17;27.33;;;;;;;6.01;70.23;101032.38;6186162;28;20226;-68
2021/01/02 05:52:57;;;;;;;33.10;27.90;;;;;;;6.19;69.58;101034.34;6186045;28;20233;-68
2021/01/02 05:56:17;;;;;;;33.37;26.73;;;;;;;6.14;69.85;101046.34;6186762;28;20222;-68
2021/01/02 05:59:40;;;;;;;33.63;27.03;;;;;;;6.53;68.61;101042.50;6194696;28;20230;-68
2021/01/02 06:03:00;;;;;;;36.42;32.72;;;;;;;6.51;68.29;101047.63;6185566;28;20739;-68
2021/01/02 06:06:21;;;;;;;30.80;27.13;;;;;;;6.43;68.42;101046.69;6205627;28;20221;-69
2021/01/02 06:09:43;;;;;;;34.60;27.90;;;;;;;6.54;68.10;101055.44;6207468;28;20595;-68
2021/01/02 06:13:03;;;;;;;34.97;29.80;;;;;;;6.41;68.56;101056.16;6182794;28;20237;-68
2021/01/02 06:16:25;;;;;;;33.00;27.27;;;;;;;6.11;70.02;101055.78;6182515;28;20249;-69
2021/01/02 06:19:45;;;;;;;37.93;28.67;;;;;;;6.01;70.06;101064.28;6185701;28;20269;-69
2021/01/02 06:23:10;;;;;;;39.77;28.90;;;;;;;6.02;70.05;101060.84;6183163;28;20257;-68
2021/01/02 06:26:31;;;;;;;35.40;30.23;;;;;;;6.20;69.14;101054.16;6182190;28;20245;-69
2021/01/02 06:29:53;;;;;;;35.23;28.60;;;;;;;6.42;68.50;101056.19;6186563;28;20222;-69
2021/01/02 06:33:17;;;;;;;38.53;28.57;;;;;;;6.16;69.26;101062.75;6183767;28;20234;-69
2021/01/02 06:36:40;;;;;;;41.07;30.23;;;;;;;6.01;69.83;101064.28;6185155;28;20261;-70
2021/01/02 06:40:19;;;;;;;43.40;32.60;;;;;;;6.17;69.19;101070.53;6187820;28;21122;-70
2021/01/02 06:43:41;;;;;;;36.73;31.93;;;;;;;6.38;68.37;101071.63;6210281;28;20229;-68
2021/01/02 06:47:13;;;;;;;36.33;29.60;;;;;;;6.37;68.55;101069.91;6189917;28;20234;-68
2021/01/02 06:50:33;;;;;;;35.67;29.93;;;;;;;6.23;68.79;101077.50;6186063;28;20234;-69
2021/01/02 06:53:54;;;;;;;36.90;30.40;;;;;;;6.36;68.58;101078.50;6180425;28;20792;-68
2021/01/02 06:57:14;;;;;;;36.07;30.33;;;;;;;6.24;68.45;101085.28;6183492;28;20572;-68
2021/01/02 07:00:37;;;;;;;38.28;31.88;;;;;;;6.49;67.46;101077.81;6182606;28;20749;-68
2021/01/02 07:03:57;;;;;;;37.90;33.13;;;;;;;6.56;67.41;101084.81;6183967;28;20218;-69
2021/01/02 07:07:38;;;;;;;37.00;29.30;;;;;;;6.69;66.94;101091.00;6182915;28;20226;-68
2021/01/02 07:11:24;;;;;;;36.37;30.37;;;;;;;6.74;66.69;101089.31;6192031;28;20563;-67
2021/01/02 07:14:44;;;;;;;38.40;29.30;;;;;;;6.67;66.66;101097.88;6186982;28;20226;-68
2021/01/02 07:18:27;;;;;;;34.97;28.57;;;;;;;6.70;66.43;101095.31;6186111;28;20259;-68
2021/01/02 07:21:56;;;;;;;39.60;30.07;;;;;;;6.59;67.38;101099.47;6185875;28;20555;-69
2021/01/02 07:25:20;;;;;;;36.00;30.37;;;;;;;6.37;67.65;101108.72;6186264;28;20515;-68
2021/01/02 07:28:51;;;;;;;41.03;30.60;;;;;;;6.11;68.88;101117.84;6188942;28;20234;-68
2021/01/02 07:32:14;;;;;;;32.23;27.87;;;;;;;6.65;67.43;101120.25;6190639;28;20237;-68
2021/01/02 07:35:35;;;;;;;38.43;32.67;;;;;;;6.17;68.45;101121.38;6200501;28;20317;-68
2021/01/02 07:38:55;;;;;;;38.40;30.30;;;;;;;6.25;68.08;101130.13;6179502;28;21091;-69
2021/01/02 07:42:17;;;;;;;37.13;29.33;;;;;;;6.47;67.27;101132.13;6182290;28;20313;-68
2021/01/02 07:45:38;;;;;;;38.40;29.10;;;;;;;6.19;68.46;101136.06;6188963;28;20246;-69
2021/01/02 07:48:59;;;;;;;40.70;30.17;;;;;;;5.97;68.93;101149.53;6186426;28;20237;-68
2021/01/02 07:52:20;;;;;;;41.43;32.93;;;;;;;5.68;70.14;101145.63;6187896;28;20238;-68
2021/01/02 07:55:42;;;;;;;37.77;29.47;;;;;;;6.04;69.14;101149.63;6185283;28;20233;-68
2021/01/02 07:59:23;;;;;;;43.47;30.37;;;;;;;5.77;69.77;101156.94;6185839;28;20257;-69
2021/01/02 08:02:43;;;;;;;36.90;30.10;;;;;;;5.81;69.60;101164.75;6189595;28;20226;-68
2021/01/02 08:06:08;;;;;;;41.03;32.37;;;;;;;6.06;69.07;101163.47;6182033;28;20245;-69
2021/01/02 08:09:31;;;;;;;43.07;32.00;;;;;;;6.17;68.57;101162.75;6186017;28;20229;-69
2021/01/02 08:12:56;;;;;;;33.53;27.77;;;;;;;6.02;69.02;101164.25;6191285;28;20226;-69
2021/01/02 08:16:17;;;;;;;41.37;30.63;;;;;;;6.25;68.14;101171.50;6209689;28;20229;-68
2021/01/02 08:19:40;;;;;;;38.67;28.20;;;;;;;5.78;69.84;101182.81;6209254;28;22021;-68
2021/01/02 08:23:06;;;;;;;39.10;31.53;;;;;;;5.65;70.29;101186.03;6213176;28;20237;-70
2021/01/02 08:26:28;;;;;;;43.13;31.87;;;;;;;5.69;69.97;101186.09;6212096;28;20245;-68
2021/01/02 08:29:49;;;;;;;38.77;29.57;;;;;;;6.16;68.96;101192.03;6213883;28;20611;-69
2021/01/02 08:33:12;;;;;;;38.70;30.43;;;;;;;6.30;68.06;101193.09;6214131;28;20241;-69
2021/01/02 08:36:40;;;;;;;38.70;30.33;;;;;;;6.48;67.64;101200.28;6199172;28;20315;-69
2021/01/02 08:40:07;;;;;;;43.57;32.77;;;;;;;6.25;68.44;101199.94;6185545;28;20592;-69
2021/01/02 08:43:29;;;;;;;41.73;31.67;;;;;;;6.01;69.33;101208.19;6189883;28;21914;-69
2021/01/02 08:46:49;;;;;;;42.87;32.77;;;;;;;5.97;69.43;101204.72;6202139;28;20241;-69
2021/01/02 08:50:11;;;;;;;42.80;32.13;;;;;;;6.09;68.89;101215.22;6185878;28;20237;-69
2021/01/02 08:53:32;;;;;;;48.00;34.87;;;;;;;5.80;69.60;101216.44;6197458;28;20256;-68
2021/01/02 08:56:53;;;;;;;44.50;32.33;;;;;;;6.34;68.06;101228.53;6193204;28;20324;-69
2021/01/02 09:00:16;;;;;;;37.53;31.17;;;;;;;6.19;68.71;101225.72;6191651;28;20249;-68
2021/01/02 09:03:37;;;;;;;41.27;31.03;;;;;;;5.97;69.62;101224.50;6184277;28;20606;-68
2021/01/02 09:07:01;;;;;;;45.03;31.40;;;;;;;6.13;69.07;101230.78;6182157;28;20234;-68
2021/01/02 09:10:25;;;;;;;41.60;31.07;;;;;;;6.21;68.65;101236.97;6184953;28;20526;-68
2021/01/02 09:13:46;;;;;;;42.93;30.27;;;;;;;6.54;67.28;101230.56;6189646;28;20246;-69
2021/01/02 09:17:08;;;;;;;41.70;31.03;;;;;;;6.57;66.79;101240.94;6182382;28;20234;-69
2021/01/02 09:20:29;;;;;;;41.37;30.87;;;;;;;6.47;67.67;101239.94;6185316;28;20225;-69
2021/01/02 09:23:49;;;;;;;36.97;29.90;;;;;;;6.18;68.28;101247.25;6186822;28;20233;-70
2021/01/02 09:27:10;;;;;;;41.47;30.33;;;;;;;6.04;68.98;101250.47;6183844;28;20236;-68
2021/01/02 09:30:30;;;;;;;43.03;30.90;;;;;;;6.28;68.20;101254.28;6187652;28;21133;-68
2021/01/02 09:33:53;;;;;;;37.30;29.30;;;;;;;6.63;67.17;101256.53;6184222;28;20230;-68
2021/01/02 09:37:13;;;;;;;41.87;31.10;;;;;;;6.68;67.08;101260.06;6183763;28;20305;-68
2021/01/02 09:40:36;;;;;;;42.97;31.10;;;;;;;6.61;66.77;101263.41;6184868;28;20229;-68
2021/01/02 09:43:58;;;;;;;39.50;30.03;;;;;;;6.63;66.83;101264.31;6170039;28;20234;-69
2021/01/02 09:47:18;;;;;;;43.10;32.00;;;;;;;6.25;68.18;101269.78;6182085;28;20506;-68
2021/01/02 09:50:41;;;;;;;44.60;31.70;;;;;;;6.34;67.78;101267.34;6182966;28;20844;-69
2021/01/02 09:54:02;;;;;;;45.83;31.17;;;;;;;6.62;66.94;101267.75;6191931;28;20328;-69
2021/01/02 09:57:23;;;;;;;40.87;30.47;;;;;;;6.69;66.76;101272.19;6209803;28;20217;-69
2021/01/02 10:00:43;;;;;;;41.57;30.70;;;;;;;6.38;67.48;101271.72;6213600;28;20225;-69
2021/01/02 10:04:04;;;;;;;41.23;30.47;;;;;;;6.22;67.95;101269.72;6207469;28;20237;-69
2021/01/02 10:07:25;;;;;;;42.37;29.60;;;;;;;6.71;69.09;101278.25;6205222;28;20331;-70
2021/01/02 10:10:45;;;;;;;40.60;31.93;;;;;;;7.04;66.83;101274.38;6210592;28;20237;-69
2021/01/02 10:14:07;;;;;;;42.97;32.07;;;;;;;6.59;67.15;101278.94;6212054;28;20225;-69
2021/01/02 10:17:29;;;;;;;43.33;34.03;;;;;;;6.85;66.32;101274.13;6210421;28;20252;-69
2021/01/02 10:20:49;;;;;;;42.17;30.40;;;;;;;6.04;68.78;101293.56;6209993;28;20241;-69
2021/01/02 10:24:10;;;;;;;46.70;34.60;;;;;;;5.97;69.48;101284.84;6210170;28;20225;-69
2021/01/02 10:27:31;;;;;;;44.87;32.40;;;;;;;6.35;67.89;101282.00;6212788;28;20240;-69
2021/01/02 10:30:53;;;;;;;44.67;34.20;;;;;;;6.23;68.15;101287.84;6208407;28;20679;-68
2021/01/02 10:34:13;;;;;;;44.13;33.80;;;;;;;6.53;67.37;101281.41;6183397;28;20233;-69
2021/01/02 10:37:33;;;;;;;39.63;32.60;;;;;;;6.23;68.48;101290.44;6184140;28;20242;-70
2021/01/02 10:40:53;;;;;;;34.73;28.67;;;;;;;6.31;68.15;101290.56;6206793;28;20226;-70
2021/01/02 10:44:14;;;;;;;38.57;30.77;;;;;;;6.52;67.64;101290.03;6210491;28;20670;-69
2021/01/02 10:47:36;;;;;;;40.87;32.33;;;;;;;5.92;70.13;101296.78;6211293;28;21143;-68
2021/01/02 10:50:56;;;;;;;42.53;32.23;;;;;;;5.79;70.88;101295.69;6198478;28;20230;-69
2021/01/02 10:54:18;;;;;;;41.23;32.80;;;;;;;5.70;71.03;101293.81;6213653;28;20602;-68
2021/01/02 10:57:38;;;;;;;43.80;32.27;;;;;;;6.27;69.37;101293.97;6204717;28;20226;-68
2021/01/02 11:00:58;;;;;;;40.17;28.83;;;;;;;6.81;67.63;101287.00;6205429;28;20245;-69
2021/01/02 11:04:23;;;;;;;38.70;29.63;;;;;;;6.93;66.84;101291.47;6187505;28;20225;-68
2021/01/02 11:07:43;;;;;;;40.07;31.07;;;;;;;6.82;66.96;101294.78;6197865;28;20229;-69
2021/01/02 11:11:04;;;;;;;41.20;31.13;;;;;;;6.79;67.38;101293.88;6184657;28;20237;-69
2021/01/02 11:14:25;;;;;;;41.10;30.93;;;;;;;6.01;69.52;101303.84;6186825;28;20229;-69
2021/01/02 11:17:45;;;;;;;41.33;30.77;;;;;;;6.24;68.90;101293.91;6206437;28;20225;-69
2021/01/02 11:21:10;;;;;;;48.77;34.10;;;;;;;6.48;68.19;101293.44;6206279;28;20237;-69
2021/01/02 11:24:33;;;;;;;43.17;30.97;;;;;;;6.73;67.34;101289.50;6211938;28;20278;-68
2021/01/02 11:27:53;;;;;;;45.23;31.67;;;;;;;6.58;67.64;101297.88;6221631;28;20229;-69
2021/01/02 11:31:14;;;;;;;37.10;30.63;;;;;;;6.08;69.46;101293.63;6211675;28;20233;-69
2021/01/02 11:34:34;;;;;;;41.30;31.70;;;;;;;6.32;68.60;101281.97;6208361;28;20240;-68
2021/01/02 11:37:56;;;;;;;46.67;32.70;;;;;;;6.07;69.75;101294.50;6199345;28;20222;-68
2021/01/02 11:41:19;;;;;;;39.53;29.77;;;;;;;6.03;69.69;101292.72;6208799;28;20635;-69
2021/01/02 11:44:39;;;;;;;50.73;36.47;;;;;;;6.21;69.35;101289.56;6208781;28;20626;-68
2021/01/02 11:48:00;;;;;;;44.53;36.07;;;;;;;6.26;68.91;101287.94;6213514;28;20229;-69
2021/01/02 11:51:20;;;;;;;43.57;33.50;;;;;;;6.38;68.40;101281.19;6213549;28;20229;-69
2021/01/02 11:54:42;;;;;;;38.47;31.30;;;;;;;6.57;68.01;101285.81;6214470;28;20768;-68
2021/01/02 11:58:03;;;;;;;44.33;31.27;;;;;;;6.62;67.60;101278.97;6196300;28;20238;-68
2021/01/02 12:01:33;;;;;;;38.83;30.57;;;;;;;6.58;68.05;101286.69;6207589;28;20237;-69
2021/01/02 12:04:55;;;;;;;41.87;30.80;;;;;;;6.95;66.82;101287.19;6211029;28;20323;-69
2021/01/02 12:08:16;;;;;;;40.47;32.57;;;;;;;7.22;66.00;101287.53;6215740;28;20225;-68
2021/01/02 12:11:39;;;;;;;45.93;34.43;;;;;;;7.20;65.61;101283.19;6223433;28;20245;-69
2021/01/02 12:14:59;;;;;;;44.03;30.77;;;;;;;7.11;65.85;101289.13;6216827;28;20553;-70
2021/01/02 12:18:21;;;;;;;40.80;31.23;;;;;;;7.00;65.93;101291.59;6202868;28;20623;-69
2021/01/02 12:21:42;;;;;;;37.13;31.00;;;;;;;6.60;67.27;101288.44;6197450;28;20230;-71
2021/01/02 12:25:05;;;;;;;44.53;29.97;;;;;;;6.75;66.86;101292.09;6197693;28;20225;-71
2021/01/02 12:28:26;;;;;;;37.80;28.27;;;;;;;6.76;66.58;101305.03;6218756;28;20221;-70
2021/01/02 12:31:51;;;;;;;39.97;30.77;;;;;;;6.75;66.37;101292.97;6195416;28;20245;-69
2021/01/02 12:38:56;;;;;;;48.40;33.80;;;;;;;6.85;66.67;101288.78;6122871;23;20769;-70
2021/01/02 12:42:16;;;;;;;46.57;35.93;;;;;;;6.52;67.95;101294.34;6087996;29;20237;-69
2021/01/02 12:45:37;;;;;;;53.37;40.67;;;;;;;6.29;68.42;101300.88;6109972;29;20228;-69
2021/01/02 12:48:58;;;;;;;48.63;35.33;;;;;;;6.47;67.98;101295.13;6100167;29;20239;-68
2021/01/02 12:52:18;;;;;;;47.23;35.53;;;;;;;6.72;67.41;101298.09;6123575;29;20629;-69
2021/01/02 12:55:39;;;;;;;52.40;40.30;;;;;;;6.87;66.92;101298.31;6118654;29;20244;-69
2021/01/02 12:59:00;;;;;;;47.13;38.27;;;;;;;6.90;66.60;101295.78;6120842;29;20236;-69
2021/01/02 13:02:23;;;;;;;51.00;40.57;;;;;;;6.63;67.76;101309.19;6122380;29;20238;-68
2021/01/02 13:05:44;;;;;;;48.53;38.63;;;;;;;6.63;67.65;101308.28;6120997;29;20235;-69
2021/01/02 13:09:05;;;;;;;47.90;34.90;;;;;;;6.62;67.83;101302.25;6118612;29;20601;-69
2021/01/02 13:12:26;;;;;;;41.13;34.57;;;;;;;6.58;67.71;101299.63;6117208;29;20788;-69
2021/01/02 13:15:47;;;;;;;34.50;29.87;;;;;;;7.28;65.68;101300.56;6122934;29;20240;-69
2021/01/02 13:19:08;;;;;;;32.33;28.10;;;;;;;7.65;64.47;101300.97;6117759;29;20244;-70
2021/01/02 13:22:29;;;;;;;35.00;26.80;;;;;;;7.86;63.74;101307.25;6120996;29;20264;-69
2021/01/02 13:25:49;;;;;;;31.83;26.33;;;;;;;8.00;62.79;101303.06;6121066;29;20240;-69
2021/01/02 13:29:10;;;;;;;31.60;26.43;;;;;;;8.14;62.39;101310.09;6127743;28;20255;-68
2021/01/02 13:32:30;;;;;;;35.47;28.30;;;;;;;8.17;62.28;101316.19;6103988;29;20251;-68
2021/01/02 13:35:51;;;;;;;30.90;22.97;;;;;;;8.21;62.16;101306.72;6110330;29;20851;-65
2021/01/02 13:39:14;;;;;;;27.23;24.30;;;;;;;8.39;63.23;101309.44;6111047;29;20328;-67
2021/01/02 13:42:35;;;;;;;36.40;30.07;;;;;;;8.57;63.52;101315.66;6120573;29;20240;-68
2021/01/02 13:45:55;;;;;;;32.60;24.43;;;;;;;8.24;62.25;101307.59;6122618;29;20239;-78
2021/01/02 13:49:16;;;;;;;34.17;25.70;;;;;;;8.36;62.32;101311.16;6116476;29;20232;-80
2021/01/02 13:52:37;;;;;;;31.17;23.93;;;;;;;8.44;62.04;101318.16;6109858;29;20323;-80
2021/01/02 13:55:57;;;;;;;36.47;27.57;;;;;;;8.45;61.83;101319.91;6107485;29;20232;-67
2021/01/02 13:59:20;;;;;;;40.17;32.07;;;;;;;8.74;63.87;101321.81;6117688;29;20622;-72
2021/01/02 14:02:40;;;;;;;53.80;41.37;;;;;;;9.01;65.55;101325.47;6116821;29;20256;-74
2021/01/02 14:06:01;;;;;;;1288.40;999.90;;;;;;;9.12;63.30;101321.19;6098878;29;20248;-73
2021/01/02 14:09:25;;;;;;;675.20;603.53;;;;;;;9.09;62.40;101330.69;6122082;29;20231;-74
2021/01/02 14:12:45;;;;;;;220.13;196.20;;;;;;;9.12;61.90;101328.13;6120885;29;20240;-73
2021/01/02 14:16:07;;;;;;;57.33;48.63;;;;;;;9.00;61.80;101331.53;6116291;29;20235;-73
2021/01/02 14:19:31;;;;;;;49.27;39.43;;;;;;;9.14;62.31;101329.88;6121455;29;20240;-72
2021/01/02 14:22:52;;;;;;;42.47;34.33;;;;;;;9.17;62.07;101336.81;6121066;29;20232;-73
2021/01/02 14:26:16;;;;;;;42.93;33.77;;;;;;;9.00;61.66;101331.53;6120160;29;20270;-74
2021/01/02 14:29:37;;;;;;;44.77;33.30;;;;;;;8.90;61.74;101342.72;6119875;29;20223;-74
2021/01/02 14:32:57;;;;;;;41.77;31.53;;;;;;;8.70;62.03;101342.59;6114059;29;20227;-73
2021/01/02 14:36:17;;;;;;;42.43;33.33;;;;;;;8.53;61.95;101340.75;6113364;29;20235;-73
2021/01/02 14:39:38;;;;;;;44.70;33.20;;;;;;;8.52;62.77;101349.38;6120528;29;20236;-72
2021/01/02 14:43:00;;;;;;;43.60;34.87;;;;;;;8.64;62.32;101346.00;6112054;29;20231;-72
2021/01/02 14:46:21;;;;;;;43.87;33.00;;;;;;;8.54;61.72;101352.00;6110810;29;20311;-73
2021/01/02 14:49:43;;;;;;;36.73;29.00;;;;;;;8.45;62.52;101360.56;6120818;29;20609;-73
2021/01/02 14:53:03;;;;;;;37.83;31.30;;;;;;;8.41;62.86;101350.97;6098480;29;20228;-73
2021/01/02 14:56:24;;;;;;;37.37;27.43;;;;;;;8.51;62.54;101362.34;6118378;29;20264;-72
2021/01/02 14:59:49;;;;;;;34.33;27.10;;;;;;;8.47;62.31;101375.31;6114190;29;20263;-72
2021/01/02 15:03:09;;;;;;;36.13;32.33;;;;;;;8.16;63.39;101378.44;6110339;29;21451;-72
2021/01/02 15:06:29;;;;;;;38.07;33.23;;;;;;;8.25;63.52;101381.13;6119352;29;20235;-72
2021/01/02 15:09:50;;;;;;;37.23;30.07;;;;;;;8.37;62.56;101383.81;6112646;29;20232;-73
2021/01/02 15:13:11;;;;;;;32.80;27.53;;;;;;;8.36;62.94;101382.09;6117610;29;20259;-73
2021/01/02 15:16:33;;;;;;;30.53;26.63;;;;;;;8.43;62.25;101386.53;6113731;29;20235;-73
2021/01/02 15:19:54;;;;;;;33.50;27.40;;;;;;;8.47;62.18;101384.81;6102277;29;20235;-73
2021/01/02 15:23:14;;;;;;;31.57;25.07;;;;;;;8.22;62.48;101391.47;6115971;29;20239;-73
2021/01/02 15:26:35;;;;;;;26.43;23.30;;;;;;;8.36;62.45;101395.06;6109536;29;20240;-73
2021/01/02 15:29:56;;;;;;;27.30;22.63;;;;;;;8.53;62.08;101400.47;6114651;29;20231;-73
2021/01/02 15:33:17;;;;;;;31.60;25.10;;;;;;;8.40;62.05;101402.03;6115050;29;20239;-73
2021/01/02 15:36:41;;;;;;;37.03;27.20;;;;;;;8.14;62.52;101413.88;6114473;29;20247;-74